Time;durP1;ratioP1;P1;durP2;ratioP2;P2;SDS_P1;SDS_P2;PMS_P1;PMS_P2;Temp;Humidity;BMP_temperature;BMP_pressure;BME280_temperature;BME280_humidity;BME280_pressure;Samples;Min_cycle;Max_cycle;Signal;HPM_P1;HPM_P2
2023/05/18 00:01:02;;;;;;;8.13;6.50;;;;;;;9.08;59.07;96758.31;4989382;28;20205;-67
2023/05/18 00:03:28;;;;;;;11.20;7.30;;;;;;;9.05;59.62;96754.03;4989230;28;20180;-69
2023/05/18 00:05:56;;;;;;;22.40;8.23;;;;;;;9.01;59.45;96752.41;4989415;28;20913;-69
2023/05/18 00:08:22;;;;;;;10.17;8.00;;;;;;;8.98;59.67;96759.53;4989449;28;20526;-69
2023/05/18 00:10:47;;;;;;;9.90;7.20;;;;;;;9.04;59.13;96749.69;4989564;28;20416;-69
2023/05/18 00:13:13;;;;;;;11.43;8.57;;;;;;;8.94;59.75;96744.81;4989365;28;20188;-68
2023/05/18 00:15:38;;;;;;;11.80;7.37;;;;;;;8.95;60.09;96744.75;4989143;28;20197;-67
2023/05/18 00:18:04;;;;;;;10.57;7.43;;;;;;;8.92;60.16;96744.00;4989602;28;20168;-69
2023/05/18 00:20:29;;;;;;;10.43;7.07;;;;;;;8.86;59.71;96745.06;4989497;28;20223;-70
2023/05/18 00:22:55;;;;;;;11.00;8.20;;;;;;;8.79;59.84;96746.16;4989696;28;20543;-67
2023/05/18 00:25:21;;;;;;;11.43;7.00;;;;;;;8.72;60.95;96742.00;4991284;28;20281;-68
2023/05/18 00:27:48;;;;;;;11.47;8.07;;;;;;;8.63;60.29;96736.16;4993218;28;20481;-68
2023/05/18 00:30:14;;;;;;;9.37;6.47;;;;;;;8.70;60.82;96739.44;4998701;28;20238;-70
2023/05/18 00:32:39;;;;;;;10.83;7.10;;;;;;;8.72;60.03;96739.38;5008612;28;20419;-67
2023/05/18 00:35:05;;;;;;;9.13;6.03;;;;;;;8.71;60.11;96735.06;5008433;28;20190;-68
2023/05/18 00:37:31;;;;;;;8.90;6.30;;;;;;;8.77;59.96;96740.97;5008900;28;20715;-68
2023/05/18 00:39:56;;;;;;;8.37;6.20;;;;;;;8.76;59.91;96752.31;5008744;28;20262;-69
2023/05/18 00:42:21;;;;;;;8.60;5.50;;;;;;;8.72;60.84;96745.50;5008555;28;20180;-69
2023/05/18 00:44:47;;;;;;;8.90;5.97;;;;;;;8.47;60.47;96740.16;5008187;28;20277;-70
2023/05/18 00:47:12;;;;;;;9.70;6.00;;;;;;;8.57;61.30;96741.56;5008362;28;20179;-70
2023/05/18 00:49:38;;;;;;;8.23;6.10;;;;;;;8.62;60.62;96750.16;5008725;28;20180;-68
2023/05/18 00:52:04;;;;;;;13.97;6.70;;;;;;;8.53;61.81;96739.09;5001218;28;20252;-67
2023/05/18 00:54:32;;;;;;;11.43;6.30;;;;;;;8.59;60.89;96746.75;4988456;28;20674;-69
2023/05/18 00:57:00;;;;;;;23.07;6.87;;;;;;;8.58;60.82;96738.06;4989132;28;20423;-68
2023/05/18 00:59:27;;;;;;;7.10;5.73;;;;;;;8.58;61.30;96738.06;4988904;28;20422;-68
2023/05/18 01:01:52;;;;;;;7.20;5.70;;;;;;;8.77;61.20;96732.28;4988678;28;20932;-69
2023/05/18 01:04:20;;;;;;;9.07;6.80;;;;;;;8.45;61.69;96727.09;4988487;28;20431;-66
2023/05/18 01:06:46;;;;;;;8.77;5.87;;;;;;;8.50;61.84;96732.19;4989092;28;20165;-68
2023/05/18 01:09:13;;;;;;;7.30;5.23;;;;;;;8.57;60.65;96727.63;4988730;28;20495;-69
2023/05/18 01:11:38;;;;;;;7.57;5.70;;;;;;;8.62;60.23;96730.97;4989734;28;20482;-69
2023/05/18 01:14:44;;;;;;;9.97;5.63;;;;;;;8.50;61.54;96719.13;4989359;28;20431;-69
2023/05/18 01:17:41;;;;;;;15.83;6.70;;;;;;;8.36;61.98;96722.16;4992890;28;20172;-66
2023/05/18 01:20:18;;;;;;;7.90;5.23;;;;;;;8.48;61.53;96716.56;4994025;28;20463;-69
2023/05/18 01:23:24;;;;;;;8.33;5.30;;;;;;;8.33;61.83;96716.97;4994891;28;20415;-68
2023/05/18 01:25:52;;;;;;;6.47;5.37;;;;;;;8.17;61.62;96713.09;5014295;28;20437;-72
2023/05/18 01:28:25;;;;;;;7.17;5.10;;;;;;;8.04;61.65;96721.31;5014046;28;20494;-69
2023/05/18 01:30:51;;;;;;;8.17;5.13;;;;;;;8.12;61.47;96722.84;5012456;28;20396;-68
2023/05/18 01:33:17;;;;;;;6.60;4.93;;;;;;;8.03;62.17;96729.19;5008004;28;20451;-70
2023/05/18 01:35:48;;;;;;;7.40;5.20;;;;;;;7.98;62.26;96725.84;5008099;28;20473;-69
2023/05/18 01:38:19;;;;;;;6.13;5.50;;;;;;;7.80;62.82;96724.63;5008007;28;20242;-70
2023/05/18 01:40:54;;;;;;;11.60;6.00;;;;;;;8.26;60.59;96721.53;5006367;28;20474;-67
2023/05/18 01:43:22;;;;;;;10.40;6.07;;;;;;;8.12;61.72;96721.09;5005464;28;20426;-68
2023/05/18 01:45:53;;;;;;;6.47;4.90;;;;;;;8.04;61.38;96718.69;5005246;28;21009;-68
2023/05/18 01:48:23;;;;;;;9.63;5.83;;;;;;;7.93;61.67;96722.53;5000181;28;20419;-69
2023/05/18 01:50:54;;;;;;;8.00;5.13;;;;;;;7.99;61.65;96709.28;5008112;28;20404;-70
2023/05/18 01:53:26;;;;;;;7.97;5.47;;;;;;;7.61;62.82;96706.00;5007465;28;20494;-67
2023/05/18 01:55:54;;;;;;;9.37;6.43;;;;;;;7.57;63.15;96709.59;5007562;28;20427;-69
2023/05/18 01:58:21;;;;;;;9.23;5.40;;;;;;;7.76;62.53;96702.09;5007896;28;20407;-69
2023/05/18 02:00:47;;;;;;;6.57;5.20;;;;;;;7.77;62.27;96709.91;5007805;28;20461;-68
2023/05/18 02:03:13;;;;;;;9.60;5.77;;;;;;;7.59;62.23;96707.78;5007545;28;20848;-70
2023/05/18 02:05:38;;;;;;;9.23;5.23;;;;;;;7.68;61.88;96706.66;4988193;28;20185;-69
2023/05/18 02:08:04;;;;;;;7.43;5.27;;;;;;;7.75;61.23;96705.63;4988098;28;20491;-69
2023/05/18 02:10:30;;;;;;;6.30;5.00;;;;;;;7.82;61.23;96694.09;4988129;28;20232;-67
2023/05/18 02:12:55;;;;;;;8.90;5.27;;;;;;;7.75;61.57;96700.41;4988679;28;20228;-70
2023/05/18 02:15:21;;;;;;;6.30;4.47;;;;;;;7.72;61.23;96700.47;4988233;28;20196;-69
2023/05/18 02:17:46;;;;;;;6.90;4.90;;;;;;;7.87;61.36;96697.44;4988069;28;20185;-68
2023/05/18 02:20:12;;;;;;;11.60;5.17;;;;;;;7.89;60.99;96700.84;4988835;28;20200;-69
2023/05/18 02:22:38;;;;;;;9.33;5.70;;;;;;;7.85;60.63;96696.63;4991696;28;20177;-67
2023/05/18 02:25:04;;;;;;;10.17;5.20;;;;;;;7.92;60.96;96698.16;4991411;28;20196;-68
2023/05/18 02:27:31;;;;;;;6.17;5.20;;;;;;;7.94;60.40;96698.97;4991949;28;20215;-69
2023/05/18 02:29:56;;;;;;;11.53;5.77;;;;;;;8.02;60.91;96683.91;4991845;28;20436;-67
2023/05/18 02:32:22;;;;;;;10.90;4.77;;;;;;;7.94;60.45;96691.13;4991676;28;20829;-69
2023/05/18 02:34:51;;;;;;;6.60;4.70;;;;;;;7.97;60.94;96698.88;4991317;28;20199;-68
2023/05/18 02:37:17;;;;;;;8.43;4.83;;;;;;;7.93;60.95;96692.00;4991801;28;20244;-69
2023/05/18 02:39:42;;;;;;;7.57;6.27;;;;;;;7.84;61.36;96685.31;4991599;28;20464;-68
2023/05/18 02:42:07;;;;;;;6.20;4.70;;;;;;;7.66;61.69;96685.81;5011426;28;20176;-69
2023/05/18 02:44:33;;;;;;;8.57;5.33;;;;;;;7.63;61.23;96676.31;5010888;28;20211;-68
2023/05/18 02:46:58;;;;;;;6.00;4.77;;;;;;;7.66;61.06;96672.75;5009430;28;20230;-68
2023/05/18 02:49:24;;;;;;;5.00;4.47;;;;;;;7.73;60.63;96684.75;5008950;28;20195;-68
2023/05/18 02:51:49;;;;;;;8.90;4.60;;;;;;;7.55;61.63;96680.03;5009128;28;20175;-71
2023/05/18 02:54:15;;;;;;;10.97;4.60;;;;;;;7.66;61.07;96670.16;5008141;28;20215;-70
2023/05/18 02:56:40;;;;;;;9.20;5.03;;;;;;;7.72;60.69;96677.78;5010406;28;20601;-67
2023/05/18 02:59:06;;;;;;;10.17;5.00;;;;;;;7.54;61.60;96679.19;5009223;28;20179;-69
2023/05/18 03:01:35;;;;;;;7.40;4.97;;;;;;;7.54;61.49;96673.09;5011001;28;20239;-70
2023/05/18 03:04:01;;;;;;;7.17;5.17;;;;;;;7.45;61.31;96673.34;5010435;28;20496;-68
2023/05/18 03:06:26;;;;;;;9.40;6.03;;;;;;;7.55;61.26;96669.59;5012535;28;20522;-67
2023/05/18 03:08:53;;;;;;;6.30;4.03;;;;;;;7.52;61.63;96670.53;5012029;28;20551;-69
2023/05/18 03:11:20;;;;;;;8.50;5.03;;;;;;;7.46;61.73;96660.25;5010629;28;20183;-69
2023/05/18 03:13:46;;;;;;;11.67;4.30;;;;;;;7.49;61.34;96665.41;5010019;28;20753;-68
2023/05/18 03:16:12;;;;;;;7.73;4.63;;;;;;;7.53;61.27;96671.38;5010149;28;20407;-69
2023/05/18 03:18:37;;;;;;;9.63;4.90;;;;;;;7.51;61.31;96670.56;5010095;28;20176;-69
2023/05/18 03:21:03;;;;;;;7.63;4.67;;;;;;;7.25;62.61;96674.72;5009901;28;20453;-68
2023/05/18 03:23:29;;;;;;;12.37;5.37;;;;;;;7.25;62.09;96674.72;5010122;28;20724;-70
2023/05/18 03:25:55;;;;;;;6.40;4.60;;;;;;;7.37;61.53;96668.31;5010284;28;20668;-69
2023/05/18 03:28:21;;;;;;;10.03;5.47;;;;;;;7.09;62.26;96669.06;5009969;28;20183;-70
2023/05/18 03:30:46;;;;;;;8.80;4.50;;;;;;;7.18;62.87;96667.94;5009982;28;20400;-67
2023/05/18 03:33:12;;;;;;;7.63;4.70;;;;;;;7.27;62.32;96662.50;5009815;28;20172;-70
2023/05/18 03:35:39;;;;;;;17.40;5.33;;;;;;;7.40;62.26;96663.03;5009345;28;20293;-68
2023/05/18 03:38:05;;;;;;;9.93;5.90;;;;;;;7.40;61.87;96661.28;5010075;28;20439;-68
2023/05/18 03:40:30;;;;;;;9.10;4.80;;;;;;;7.34;61.50;96666.66;5009769;28;20561;-67
2023/05/18 03:42:56;;;;;;;5.73;4.57;;;;;;;7.08;62.81;96663.88;5009903;28;20235;-67
2023/05/18 03:45:21;;;;;;;7.90;4.90;;;;;;;7.04;62.78;96676.16;5009344;28;20200;-66
2023/05/18 03:47:47;;;;;;;5.77;4.43;;;;;;;6.96;63.14;96673.72;5009805;28;20284;-70
2023/05/18 03:50:12;;;;;;;8.33;5.17;;;;;;;7.17;62.35;96676.69;4995494;28;20205;-67
2023/05/18 03:52:38;;;;;;;6.17;4.57;;;;;;;6.96;62.86;96672.88;5001825;28;20535;-66
2023/05/18 03:55:04;;;;;;;5.47;4.33;;;;;;;7.13;62.31;96677.66;5007938;28;20273;-69
2023/05/18 03:57:31;;;;;;;10.07;5.17;;;;;;;7.34;61.94;96671.03;5009160;28;20833;-69
2023/05/18 03:59:57;;;;;;;7.30;4.63;;;;;;;7.37;62.15;96671.81;5009296;28;20772;-67
2023/05/18 04:02:23;;;;;;;6.20;4.97;;;;;;;7.22;62.21;96673.06;4991694;28;20427;-69
2023/05/18 04:04:48;;;;;;;9.67;4.63;;;;;;;7.09;62.62;96669.06;5006514;28;20603;-68
2023/05/18 04:07:15;;;;;;;10.00;4.47;;;;;;;6.96;62.81;96670.25;5009337;28;20480;-68
2023/05/18 04:09:42;;;;;;;7.33;4.23;;;;;;;7.18;62.40;96674.06;5009301;28;20206;-67
2023/05/18 04:12:08;;;;;;;8.23;5.80;;;;;;;7.21;62.25;96678.34;5009654;28;20451;-70
2023/05/18 04:14:34;;;;;;;6.10;4.07;;;;;;;7.31;61.93;96669.34;5009593;28;20423;-68
2023/05/18 04:17:06;;;;;;;7.43;5.40;;;;;;;7.21;62.49;96666.13;5009664;28;20307;-68
2023/05/18 04:19:32;;;;;;;6.23;5.37;;;;;;;7.25;62.37;96672.13;5009993;28;20221;-67
2023/05/18 04:21:57;;;;;;;6.30;4.50;;;;;;;7.24;62.58;96673.03;5009507;28;20933;-67
2023/05/18 04:24:25;;;;;;;6.70;4.80;;;;;;;7.46;61.22;96664.63;5009195;28;20423;-68
2023/05/18 04:26:50;;;;;;;6.73;4.10;;;;;;;7.82;59.73;96671.44;5009332;28;20169;-68
2023/05/18 04:29:16;;;;;;;8.67;4.20;;;;;;;8.31;59.20;96674.34;5009435;28;20418;-68
2023/05/18 04:31:43;;;;;;;6.17;4.30;;;;;;;8.05;58.57;96677.72;5008743;28;20740;-68
2023/05/18 04:34:09;;;;;;;7.97;4.40;;;;;;;8.20;58.73;96686.91;5008355;28;20235;-68
2023/05/18 04:36:34;;;;;;;5.43;4.37;;;;;;;8.20;58.78;96666.84;5008488;28;20411;-69
2023/05/18 04:39:06;;;;;;;8.03;4.30;;;;;;;8.27;58.47;96680.59;5008451;28;20694;-68
2023/05/18 04:41:33;;;;;;;5.00;3.40;;;;;;;8.63;57.23;96683.00;5008533;28;20242;-68
2023/05/18 04:43:59;;;;;;;7.40;3.90;;;;;;;8.75;57.33;96677.34;5007315;28;20442;-67
2023/05/18 04:46:25;;;;;;;5.33;3.63;;;;;;;8.47;58.43;96683.47;5008285;28;20442;-67
2023/05/18 04:48:51;;;;;;;7.07;4.27;;;;;;;8.52;57.70;96683.31;5008398;28;20414;-68
2023/05/18 04:51:20;;;;;;;7.07;3.47;;;;;;;8.81;56.73;96678.91;5007317;28;20415;-68
2023/05/18 04:53:48;;;;;;;11.87;6.77;;;;;;;8.83;57.10;96683.19;5007533;28;20431;-69
2023/05/18 04:56:15;;;;;;;7.03;3.83;;;;;;;8.88;57.16;96683.91;5008332;28;20800;-69
2023/05/18 04:58:44;;;;;;;6.20;3.90;;;;;;;9.06;56.22;96676.34;5006162;28;20426;-69
2023/05/18 05:01:11;;;;;;;11.83;6.13;;;;;;;9.29;54.97;96686.06;5000431;28;20490;-69
2023/05/18 05:03:36;;;;;;;7.50;4.87;;;;;;;8.94;56.81;96679.38;5002547;28;20415;-67
2023/05/18 05:06:02;;;;;;;7.33;3.93;;;;;;;9.14;56.02;96687.41;5008278;28;20482;-67
2023/05/18 05:08:27;;;;;;;5.77;4.10;;;;;;;9.03;56.34;96687.78;5008489;28;20168;-69
2023/05/18 05:10:53;;;;;;;5.30;4.23;;;;;;;8.88;57.25;96688.28;5008481;28;20219;-69
2023/05/18 05:13:18;;;;;;;6.87;4.43;;;;;;;8.82;57.37;96689.34;5008094;28;20180;-67
2023/05/18 05:15:43;;;;;;;4.90;4.40;;;;;;;8.75;57.29;96689.59;5008071;28;20192;-68
2023/05/18 05:18:09;;;;;;;8.60;4.50;;;;;;;8.92;56.76;96691.66;5008297;28;20179;-67
2023/05/18 05:20:35;;;;;;;6.60;4.40;;;;;;;9.10;56.76;96694.53;5008079;28;20204;-66
2023/05/18 05:23:00;;;;;;;12.53;5.00;;;;;;;8.75;57.41;96705.28;5008211;28;20553;-69
2023/05/18 05:25:26;;;;;;;5.20;4.00;;;;;;;8.91;58.07;96703.91;5007892;28;20285;-70
2023/05/18 05:27:51;;;;;;;8.70;5.13;;;;;;;9.37;56.80;96702.34;5008541;28;20164;-67
2023/05/18 05:30:16;;;;;;;8.97;3.90;;;;;;;9.44;56.54;96697.75;5007500;28;20206;-70
2023/05/18 05:32:42;;;;;;;8.63;4.53;;;;;;;9.05;57.70;96706.91;5007799;28;20208;-70
2023/05/18 05:35:08;;;;;;;7.70;5.10;;;;;;;9.03;58.18;96703.50;4999512;28;20264;-67
2023/05/18 05:37:33;;;;;;;12.47;5.73;;;;;;;9.44;57.35;96697.75;5008067;28;20581;-67
2023/05/18 05:39:59;;;;;;;7.70;5.17;;;;;;;9.38;57.36;96709.31;5008680;28;20218;-68
2023/05/18 05:42:24;;;;;;;6.30;5.50;;;;;;;9.61;60.66;96702.41;5009391;28;20168;-70
2023/05/18 05:44:50;;;;;;;9.07;5.20;;;;;;;9.91;55.98;96706.56;5009136;28;20196;-66
2023/05/18 05:47:15;;;;;;;10.13;4.60;;;;;;;10.25;62.01;96707.94;5011316;28;20208;-68
2023/05/18 05:49:42;;;;;;;20.70;5.30;;;;;;;10.03;56.84;96712.28;5026584;28;20203;-71
2023/05/18 05:52:07;;;;;;;16.97;5.57;;;;;;;9.98;56.80;96706.34;5026894;28;20497;-70
2023/05/18 05:54:32;;;;;;;9.00;5.10;;;;;;;10.57;56.55;96713.75;5031517;28;20191;-70
2023/05/18 05:56:58;;;;;;;7.33;3.60;;;;;;;10.35;55.56;96708.50;5018297;28;20165;-69
2023/05/18 05:59:23;;;;;;;7.53;5.63;;;;;;;10.16;56.14;96703.91;5017553;28;20157;-69
2023/05/18 06:01:49;;;;;;;9.30;4.90;;;;;;;10.64;56.33;96701.25;5015514;28;20172;-70
2023/05/18 06:04:15;;;;;;;9.57;4.73;;;;;;;10.95;57.78;96703.50;5038689;28;20197;-71
2023/05/18 06:06:41;;;;;;;8.33;5.10;;;;;;;11.25;55.43;96706.66;5026153;28;20177;-71
2023/05/18 06:09:06;;;;;;;7.30;4.50;;;;;;;10.96;53.88;96706.06;5014472;28;20249;-70
2023/05/18 06:11:32;;;;;;;7.80;4.80;;;;;;;10.52;54.92;96715.72;5007241;28;20441;-71
2023/05/18 06:13:58;;;;;;;11.37;6.50;;;;;;;10.44;55.92;96723.00;5010741;28;20214;-71
2023/05/18 06:16:24;;;;;;;7.30;5.30;;;;;;;10.62;55.43;96722.28;5005743;28;20223;-71
2023/05/18 06:18:50;;;;;;;10.77;6.30;;;;;;;10.73;55.92;96719.28;5008997;28;20180;-70
2023/05/18 06:21:16;;;;;;;5.67;4.40;;;;;;;10.68;55.48;96716.81;5010500;28;20463;-71
2023/05/18 06:23:43;;;;;;;9.63;6.30;;;;;;;10.90;56.02;96719.44;5007656;28;20446;-69
2023/05/18 06:26:09;;;;;;;8.23;4.80;;;;;;;11.16;54.80;96715.75;5006224;28;20234;-72
2023/05/18 06:28:34;;;;;;;8.03;4.97;;;;;;;11.21;55.23;96708.53;5006390;28;20543;-72
2023/05/18 06:31:00;;;;;;;7.80;4.87;;;;;;;11.25;54.96;96721.56;5008943;28;20255;-70
2023/05/18 06:33:25;;;;;;;9.77;5.67;;;;;;;10.63;56.69;96712.66;5010119;28;20692;-71
2023/05/18 06:35:51;;;;;;;9.27;5.20;;;;;;;10.48;57.38;96714.94;5006208;28;20208;-69
2023/05/18 06:38:16;;;;;;;10.07;5.50;;;;;;;11.01;56.55;96706.75;5007179;28;20180;-69
2023/05/18 06:40:42;;;;;;;9.47;5.70;;;;;;;10.97;56.84;96714.81;5007226;28;20685;-70
2023/05/18 06:43:07;;;;;;;6.63;4.97;;;;;;;11.51;55.57;96718.69;5008035;28;20180;-71
2023/05/18 06:45:33;;;;;;;7.13;5.10;;;;;;;11.74;54.35;96709.81;5007011;28;20696;-72
2023/05/18 06:47:58;;;;;;;8.17;5.47;;;;;;;11.50;55.08;96713.50;5003723;28;20247;-70
2023/05/18 06:50:24;;;;;;;7.23;5.73;;;;;;;11.34;55.82;96716.78;5005610;28;20370;-70
2023/05/18 06:52:50;;;;;;;16.80;6.10;;;;;;;11.44;55.90;96714.63;5006937;28;20684;-70
2023/05/18 06:55:16;;;;;;;7.20;5.40;;;;;;;11.91;54.41;96717.00;5005959;28;20625;-70
2023/05/18 06:57:41;;;;;;;10.27;5.73;;;;;;;12.14;53.81;96723.00;5007984;28;20203;-70
2023/05/18 07:00:07;;;;;;;9.50;5.87;;;;;;;11.54;55.65;96717.69;5009110;28;20240;-71
2023/05/18 07:02:33;;;;;;;7.57;5.70;;;;;;;11.95;54.46;96708.06;5006154;28;20176;-71
2023/05/18 07:05:00;;;;;;;6.93;5.40;;;;;;;12.40;53.45;96704.25;5004348;28;20457;-71
2023/05/18 07:07:25;;;;;;;10.20;6.20;;;;;;;12.45;53.10;96711.94;5004465;28;20176;-70
2023/05/18 07:09:53;;;;;;;8.07;5.50;;;;;;;12.05;55.00;96719.03;5003658;28;20788;-71
2023/05/18 07:12:19;;;;;;;11.07;5.90;;;;;;;11.82;54.78;96725.25;5001873;28;20921;-71
2023/05/18 07:14:44;;;;;;;8.33;5.33;;;;;;;11.99;55.22;96720.13;5000282;28;20437;-71
2023/05/18 07:17:10;;;;;;;10.10;5.90;;;;;;;11.80;54.40;96730.56;5001307;28;20173;-71
2023/05/18 07:19:35;;;;;;;7.53;6.00;;;;;;;12.11;54.47;96702.94;5003266;28;20184;-71
2023/05/18 07:22:03;;;;;;;6.70;5.17;;;;;;;12.58;52.64;96712.22;5005997;28;20183;-71
2023/05/18 07:24:29;;;;;;;9.03;5.80;;;;;;;13.01;52.35;96715.44;5005993;28;20200;-71
2023/05/18 07:26:54;;;;;;;9.13;5.57;;;;;;;13.05;51.81;96709.09;5007260;28;20449;-70
2023/05/18 07:29:20;;;;;;;6.50;5.90;;;;;;;12.66;52.58;96708.31;5007123;28;20948;-70
2023/05/18 07:31:46;;;;;;;7.23;6.53;;;;;;;12.66;52.95;96710.94;5002228;28;20180;-69
2023/05/18 07:34:11;;;;;;;8.43;6.27;;;;;;;12.24;53.91;96703.25;5004408;28;20544;-71
2023/05/18 07:36:37;;;;;;;7.77;5.17;;;;;;;12.44;53.81;96707.59;5003540;28;20442;-70
2023/05/18 07:39:03;;;;;;;6.67;5.27;;;;;;;12.51;53.52;96706.38;5006252;28;20181;-70
2023/05/18 07:41:30;;;;;;;15.53;6.57;;;;;;;12.56;53.48;96708.81;5005195;28;20601;-69
2023/05/18 07:43:55;;;;;;;8.60;5.47;;;;;;;12.75;51.69;96696.47;5000815;28;20233;-70
2023/05/18 07:46:21;;;;;;;8.30;6.03;;;;;;;12.58;52.95;96713.06;5004744;28;21086;-68
2023/05/18 07:48:46;;;;;;;8.10;6.50;;;;;;;12.81;53.74;96714.63;4999375;28;20177;-71
2023/05/18 07:51:12;;;;;;;9.40;6.07;;;;;;;13.48;50.92;96697.28;5000141;28;20180;-71
2023/05/18 07:53:39;;;;;;;15.50;5.97;;;;;;;13.42;51.00;96697.63;4999354;28;20248;-70
2023/05/18 07:56:07;;;;;;;11.57;6.20;;;;;;;12.57;53.71;96706.09;4999346;28;20187;-71
2023/05/18 07:58:34;;;;;;;12.47;5.80;;;;;;;13.03;51.29;96703.03;5002650;28;20799;-70
2023/05/18 08:00:59;;;;;;;10.33;6.30;;;;;;;12.91;53.01;96699.22;5005510;28;20467;-71
2023/05/18 08:03:25;;;;;;;8.87;6.00;;;;;;;12.80;52.66;96697.09;5001331;28;20440;-70
2023/05/18 08:05:50;;;;;;;8.00;5.60;;;;;;;13.07;52.13;96699.34;5003135;28;20578;-70
2023/05/18 08:08:16;;;;;;;8.77;5.70;;;;;;;13.42;50.11;96699.41;5006258;28;20548;-71
2023/05/18 08:10:41;;;;;;;9.80;5.30;;;;;;;13.43;50.80;96703.75;5005055;28;20180;-70
2023/05/18 08:13:07;;;;;;;10.57;6.00;;;;;;;13.33;50.91;96712.09;5004461;28;20193;-72
2023/05/18 08:15:33;;;;;;;5.83;5.20;;;;;;;13.59;51.11;96699.41;5004233;28;20228;-72
2023/05/18 08:17:59;;;;;;;11.80;5.03;;;;;;;13.54;49.91;96704.91;5003409;28;20204;-70
2023/05/18 08:20:24;;;;;;;10.60;6.00;;;;;;;13.08;51.99;96696.59;5004387;28;20613;-70
2023/05/18 08:22:50;;;;;;;7.30;6.20;;;;;;;13.63;50.78;96703.59;5006674;28;20620;-69
2023/05/18 08:25:16;;;;;;;10.13;5.77;;;;;;;13.83;50.03;96699.06;5003604;28;20203;-70
2023/05/18 08:27:41;;;;;;;8.50;6.27;;;;;;;13.91;49.72;96686.31;5003251;28;20179;-69
2023/05/18 08:30:10;;;;;;;6.73;6.10;;;;;;;14.17;48.80;96688.44;5006151;28;20289;-70
2023/05/18 08:32:36;;;;;;;12.20;5.80;;;;;;;13.97;48.67;96688.63;5004394;28;20258;-69
2023/05/18 08:35:07;;;;;;;7.30;5.60;;;;;;;14.00;48.43;96674.44;5005757;28;20454;-69
2023/05/18 08:37:33;;;;;;;6.57;5.80;;;;;;;14.79;47.66;96669.25;5003613;28;20199;-67
2023/05/18 08:39:58;;;;;;;6.57;5.93;;;;;;;14.55;47.33;96677.59;5005193;28;20463;-70
2023/05/18 08:42:47;;;;;;;12.67;6.43;;;;;;;14.30;47.65;96671.94;5007333;28;20943;-70
2023/05/18 08:45:24;;;;;;;9.37;5.43;;;;;;;14.15;47.03;96663.91;5000387;28;20232;-69
2023/05/18 08:47:54;;;;;;;18.83;7.03;;;;;;;14.81;46.42;96662.94;5005589;28;20488;-70
2023/05/18 08:50:20;;;;;;;11.03;5.90;;;;;;;14.56;45.30;96679.31;5007592;28;20438;-70
2023/05/18 08:52:54;;;;;;;6.60;5.30;;;;;;;14.61;45.57;96677.25;5021650;28;20443;-67
2023/05/18 08:55:22;;;;;;;11.03;5.23;;;;;;;14.16;46.15;96673.53;5006577;28;20881;-70
2023/05/18 08:57:54;;;;;;;8.37;5.73;;;;;;;14.57;45.12;96669.59;5006169;28;20859;-68
2023/05/18 09:00:21;;;;;;;7.77;5.57;;;;;;;14.48;46.06;96673.56;5006841;28;20886;-68
2023/05/18 09:02:47;;;;;;;6.73;4.73;;;;;;;14.32;47.01;96656.88;5005359;28;20796;-70
2023/05/18 09:05:14;;;;;;;6.57;5.30;;;;;;;14.57;46.46;96664.31;5006451;28;20947;-70
2023/05/18 09:07:41;;;;;;;9.27;5.40;;;;;;;14.80;44.12;96657.72;5003854;28;20980;-69
2023/05/18 09:10:10;;;;;;;6.57;4.93;;;;;;;14.29;44.62;96668.44;5003613;28;20423;-70
2023/05/18 09:12:36;;;;;;;6.33;4.97;;;;;;;14.35;44.03;96662.81;5004554;28;20430;-70
2023/05/18 09:15:02;;;;;;;8.63;4.93;;;;;;;14.39;44.58;96671.44;5002582;28;20510;-70
2023/05/18 09:17:28;;;;;;;6.70;5.23;;;;;;;14.72;44.76;96665.25;5004627;28;20466;-69
2023/05/18 09:19:53;;;;;;;11.30;5.40;;;;;;;14.64;45.21;96665.66;5006039;28;20511;-69
2023/05/18 09:22:18;;;;;;;7.17;4.70;;;;;;;14.77;42.24;96665.84;5004068;28;20645;-69
2023/05/18 09:24:44;;;;;;;7.27;5.17;;;;;;;14.75;42.64;96668.56;5006545;28;20220;-69
2023/05/18 09:27:10;;;;;;;8.93;4.77;;;;;;;14.59;43.66;96679.13;5004787;28;20241;-69
2023/05/18 09:29:50;;;;;;;13.33;5.60;;;;;;;14.72;43.76;96673.19;5005495;28;20188;-69
2023/05/18 09:32:16;;;;;;;7.73;4.30;;;;;;;14.85;43.32;96668.88;5006604;28;20446;-68
2023/05/18 09:34:42;;;;;;;5.97;4.50;;;;;;;14.83;42.57;96670.75;5005852;28;20465;-68
2023/05/18 09:37:08;;;;;;;7.13;4.73;;;;;;;14.27;43.29;96664.16;5005520;28;20226;-67
2023/05/18 09:39:34;;;;;;;8.80;5.30;;;;;;;13.94;44.59;96680.91;5005462;28;20207;-69
2023/05/18 09:42:02;;;;;;;7.60;4.50;;;;;;;14.51;43.01;96672.56;5006273;28;20546;-69
2023/05/18 09:44:33;;;;;;;6.47;4.90;;;;;;;14.71;41.73;96668.81;5005902;28;20494;-69
2023/05/18 09:46:59;;;;;;;10.63;4.93;;;;;;;14.85;42.85;96666.25;5004950;28;20457;-68
2023/05/18 09:49:24;;;;;;;11.07;5.20;;;;;;;14.48;43.02;96662.13;5005154;28;20454;-70
2023/05/18 09:51:50;;;;;;;10.07;4.90;;;;;;;14.50;42.92;96660.25;5004630;28;20176;-69
2023/05/18 09:54:15;;;;;;;4.53;3.80;;;;;;;14.86;42.32;96661.81;5008585;28;20199;-68
2023/05/18 09:56:45;;;;;;;4.87;4.00;;;;;;;14.84;41.45;96651.34;5007904;28;20636;-69
2023/05/18 09:59:13;;;;;;;7.10;4.80;;;;;;;14.99;41.60;96666.31;5007536;28;20191;-69
2023/05/18 10:01:59;;;;;;;5.83;4.20;;;;;;;15.18;41.67;96644.94;5009380;28;20470;-69
2023/05/18 10:04:41;;;;;;;9.50;4.80;;;;;;;15.00;41.56;96649.53;5003285;28;20484;-69
2023/05/18 10:07:11;;;;;;;9.03;4.63;;;;;;;14.36;42.83;96647.81;5007840;28;20514;-68
2023/05/18 10:09:40;;;;;;;10.10;5.23;;;;;;;14.26;42.90;96652.75;5011542;28;20542;-68
2023/05/18 10:12:17;;;;;;;10.60;6.27;;;;;;;14.60;42.97;96648.31;5011927;28;20418;-69
2023/05/18 10:14:44;;;;;;;7.23;4.90;;;;;;;14.71;42.76;96650.31;5010051;28;20438;-70
2023/05/18 10:17:13;;;;;;;4.60;4.10;;;;;;;14.19;42.95;96661.94;5006888;28;21363;-69
2023/05/18 10:19:43;;;;;;;10.43;4.90;;;;;;;14.03;43.45;96664.56;5006827;28;20449;-68
2023/05/18 10:22:09;;;;;;;10.03;5.30;;;;;;;14.16;43.62;96668.25;5005849;28;20900;-70
2023/05/18 10:24:38;;;;;;;6.40;4.53;;;;;;;13.81;43.58;96667.47;5005156;28;20510;-69
2023/05/18 10:27:08;;;;;;;8.13;4.67;;;;;;;14.26;43.43;96655.41;5005127;28;20198;-67
2023/05/18 10:29:36;;;;;;;9.93;3.80;;;;;;;14.66;43.55;96660.31;5003286;28;20804;-68
2023/05/18 10:32:03;;;;;;;10.10;4.03;;;;;;;14.74;41.88;96660.72;4998301;28;20432;-69
2023/05/18 10:34:30;;;;;;;7.20;3.90;;;;;;;14.25;43.49;96658.13;4999677;28;20550;-69
2023/05/18 10:36:56;;;;;;;8.30;4.30;;;;;;;14.51;42.99;96654.91;5004983;28;20430;-69
2023/05/18 10:39:23;;;;;;;6.77;3.87;;;;;;;14.40;43.04;96647.56;5003259;28;20497;-69
2023/05/18 10:41:52;;;;;;;5.07;3.90;;;;;;;14.45;43.27;96649.94;5011514;28;20493;-69
2023/05/18 10:44:17;;;;;;;5.03;4.00;;;;;;;14.62;42.09;96656.97;4994210;28;20455;-69
2023/05/18 10:46:43;;;;;;;6.73;4.60;;;;;;;14.60;42.58;96651.78;5005652;28;20469;-70
2023/05/18 10:49:12;;;;;;;6.33;4.17;;;;;;;14.92;42.12;96648.25;5012268;28;20186;-70
2023/05/18 10:51:42;;;;;;;9.27;4.17;;;;;;;15.19;41.66;96646.66;5003020;28;20869;-70
2023/05/18 10:54:12;;;;;;;9.43;4.40;;;;;;;14.73;42.84;96649.31;5026272;28;20456;-68
2023/05/18 10:56:46;;;;;;;12.40;4.70;;;;;;;14.72;42.03;96644.13;5033852;28;20850;-70
2023/05/18 10:59:13;;;;;;;6.27;4.50;;;;;;;14.76;42.33;96654.44;5045341;28;20440;-67
2023/05/18 11:01:41;;;;;;;5.70;3.83;;;;;;;14.97;41.76;96652.31;5040488;28;20469;-70
2023/05/18 11:04:07;;;;;;;6.90;4.40;;;;;;;15.07;42.08;96649.16;5030561;28;20492;-70
2023/05/18 11:06:34;;;;;;;7.37;4.33;;;;;;;15.25;41.39;96667.44;5029053;28;20950;-70
2023/05/18 11:09:00;;;;;;;6.80;3.90;;;;;;;14.85;42.37;96641.63;5035556;28;20179;-70
2023/05/18 11:11:29;;;;;;;8.97;4.20;;;;;;;15.22;42.58;96651.78;5030215;28;20439;-68
2023/05/18 11:14:00;;;;;;;8.70;4.20;;;;;;;14.66;41.56;96655.88;5022342;28;20455;-67
2023/05/18 11:16:34;;;;;;;7.20;4.90;;;;;;;14.81;42.27;96654.13;5026359;28;20449;-70
2023/05/18 11:19:05;;;;;;;5.87;4.07;;;;;;;15.06;43.21;96656.25;5024379;28;20490;-71
2023/05/18 11:21:34;;;;;;;6.80;4.33;;;;;;;14.85;41.76;96657.47;5024568;28;20515;-69
2023/05/18 11:24:18;;;;;;;6.67;4.00;;;;;;;14.56;42.90;96652.03;5037680;28;20465;-71
2023/05/18 11:26:48;;;;;;;7.07;5.10;;;;;;;14.65;42.33;96650.69;5038702;28;21065;-71
2023/05/18 11:29:28;;;;;;;7.77;4.17;;;;;;;14.60;42.93;96648.31;5030424;28;20842;-68
2023/05/18 11:31:54;;;;;;;8.63;3.60;;;;;;;14.94;42.73;96655.16;5023411;28;20428;-69
2023/05/18 11:34:43;;;;;;;5.23;3.77;;;;;;;14.82;43.03;96643.50;5021333;28;20533;-71
2023/05/18 11:37:10;;;;;;;23.80;7.47;;;;;;;14.84;43.48;96653.16;5029793;28;20199;-70